Time;durP1;ratioP1;P1;durP2;ratioP2;P2;SDS_P1;SDS_P2;PMS_P1;PMS_P2;Temp;Humidity;BMP_temperature;BMP_pressure;BME280_temperature;BME280_humidity;BME280_pressure;Samples;Min_cycle;Max_cycle;Signal;HPM_P1;HPM_P2
2023/03/25 00:01:54;;;;;;;24.23;13.37;;;11.60;96.90;;;11.76;59.75;94696.16;4986121;28;20486;-57
2023/03/25 00:04:25;;;;;;;21.30;12.63;;;11.60;96.70;;;11.77;59.59;94691.69;4986185;28;20496;-55
2023/03/25 00:06:56;;;;;;;22.67;12.70;;;11.60;96.90;;;11.75;59.56;94694.47;5009318;28;21053;-56
2023/03/25 00:09:23;;;;;;;18.87;12.90;;;11.60;96.70;;;11.74;59.10;94692.00;4983184;28;20578;-57
2023/03/25 00:11:50;;;;;;;25.37;11.97;;;11.60;96.20;;;11.70;59.07;94685.41;4986174;28;20486;-56
2023/03/25 00:14:18;;;;;;;23.17;12.30;;;11.60;96.20;;;11.67;59.31;94691.78;4990186;28;20467;-56
2023/03/25 00:16:47;;;;;;;15.70;11.00;;;11.50;96.20;;;11.66;59.39;94687.47;4989555;28;20486;-56
2023/03/25 00:19:14;;;;;;;16.00;11.93;;;11.50;96.70;;;11.63;59.85;94679.88;4985276;28;20657;-56
2023/03/25 00:21:43;;;;;;;25.73;10.80;;;11.50;96.90;;;11.61;59.62;94673.94;4993971;28;21032;-54
2023/03/25 00:24:16;;;;;;;20.77;12.33;;;11.50;97.00;;;11.63;59.56;94670.19;4987914;28;20494;-57
2023/03/25 00:26:44;;;;;;;19.13;12.53;;;11.50;96.80;;;11.62;59.17;94672.97;4985213;28;20513;-57
2023/03/25 00:29:12;;;;;;;15.40;11.67;;;11.50;96.50;;;11.59;60.01;94668.84;4992356;28;21034;-55
2023/03/25 00:31:39;;;;;;;14.00;10.80;;;11.50;97.30;;;11.59;59.62;94670.66;4993792;28;20458;-56
2023/03/25 00:34:07;;;;;;;12.77;10.57;;;11.50;96.90;;;11.58;59.96;94666.34;4988466;28;20485;-54
2023/03/25 00:36:36;;;;;;;14.70;11.30;;;11.40;97.00;;;11.56;59.75;94671.75;4981989;28;20589;-58
2023/03/25 00:39:04;;;;;;;14.20;11.63;;;11.40;97.00;;;11.56;59.94;94673.59;4991051;28;20461;-55
2023/03/25 00:41:34;;;;;;;13.43;10.73;;;11.40;96.90;;;11.55;59.88;94666.66;4984443;28;20541;-56
2023/03/25 00:44:02;;;;;;;17.03;11.50;;;11.40;96.90;;;11.56;59.95;94670.94;4978830;28;20478;-54
2023/03/25 00:46:30;;;;;;;14.10;11.00;;;11.40;97.10;;;11.54;59.94;94663.19;4987713;28;21435;-56
2023/03/25 00:48:58;;;;;;;17.97;10.73;;;11.40;96.90;;;11.54;59.91;94662.34;4989849;28;20476;-57
2023/03/25 00:51:25;;;;;;;17.10;12.30;;;11.40;97.10;;;11.53;59.80;94658.09;4985471;28;20530;-57
2023/03/25 00:53:54;;;;;;;15.73;10.97;;;11.40;97.00;;;11.51;59.49;94652.13;4994013;28;20445;-55
2023/03/25 00:56:21;;;;;;;12.70;10.40;;;11.40;96.70;;;11.49;60.00;94641.72;4994145;28;20465;-55
2023/03/25 00:58:50;;;;;;;14.87;10.83;;;11.40;97.20;;;11.47;60.07;94655.06;4976322;28;20467;-56
2023/03/25 01:01:22;;;;;;;15.50;11.27;;;11.40;97.20;;;11.47;59.95;94652.41;4994795;28;20468;-55
2023/03/25 01:03:56;;;;;;;13.70;11.23;;;11.30;97.20;;;11.46;60.31;94648.16;4987771;28;20981;-56
2023/03/25 01:06:27;;;;;;;15.07;10.87;;;11.30;97.40;;;11.46;60.08;94642.88;4985293;28;20805;-56
2023/03/25 01:08:55;;;;;;;20.00;12.07;;;11.30;97.30;;;11.44;59.77;94642.19;4992365;28;21025;-55
2023/03/25 01:11:25;;;;;;;12.00;9.47;;;11.30;97.00;;;11.44;60.09;94644.00;4995202;28;20481;-55
2023/03/25 01:13:55;;;;;;;12.90;9.47;;;11.30;97.10;;;11.42;60.40;94644.16;4991691;28;20520;-57
2023/03/25 01:16:23;;;;;;;14.43;11.50;;;11.30;97.50;;;11.42;60.22;94645.97;4988493;28;20529;-56
2023/03/25 01:18:50;;;;;;;17.20;11.50;;;11.30;97.30;;;11.41;59.97;94639.03;4994208;28;20465;-57
2023/03/25 01:21:17;;;;;;;15.10;10.27;;;11.20;97.40;;;11.39;60.39;94628.66;4992983;28;20473;-57
2023/03/25 01:23:44;;;;;;;15.97;11.07;;;11.30;97.60;;;11.38;60.48;94629.63;4987705;28;21198;-54
2023/03/25 01:26:12;;;;;;;13.90;10.87;;;11.30;97.70;;;11.38;59.83;94621.72;4996822;28;20490;-56
2023/03/25 01:28:40;;;;;;;13.80;11.00;;;11.20;97.10;;;11.36;59.73;94612.34;4994869;28;21071;-56
2023/03/25 01:31:10;;;;;;;18.93;10.70;;;11.20;97.00;;;11.34;59.93;94620.38;4988236;28;20569;-54
2023/03/25 01:33:38;;;;;;;18.00;10.80;;;11.20;97.20;;;11.33;60.00;94612.63;4995156;28;20489;-55
2023/03/25 01:36:08;;;;;;;19.20;11.17;;;11.20;97.10;;;11.29;59.75;94602.41;4994696;28;20461;-54
2023/03/25 01:38:36;;;;;;;18.47;10.60;;;11.20;96.90;;;11.26;59.81;94604.50;4984202;28;20900;-57
2023/03/25 01:41:03;;;;;;;13.80;9.73;;;11.10;96.80;;;11.24;59.81;94601.19;4993890;28;21503;-57
2023/03/25 01:43:31;;;;;;;19.77;11.47;;;11.10;96.90;;;11.22;59.62;94605.78;4989877;28;21119;-57
2023/03/25 01:45:58;;;;;;;17.73;9.90;;;11.10;96.90;;;11.20;60.11;94605.94;4990106;28;20602;-56
2023/03/25 01:48:31;;;;;;;17.30;10.47;;;11.10;97.30;;;11.18;59.80;94605.25;4985237;28;20490;-53
2023/03/25 01:51:01;;;;;;;20.33;10.63;;;11.10;97.10;;;11.18;60.11;94607.88;4989807;28;20468;-54
2023/03/25 01:53:29;;;;;;;14.60;10.97;;;11.10;97.20;;;11.16;59.63;94604.56;4989772;28;20501;-56
2023/03/25 01:55:56;;;;;;;14.00;10.30;;;11.00;97.00;;;11.15;60.18;94600.28;4992414;28;20950;-55
2023/03/25 01:58:26;;;;;;;15.80;10.83;;;11.00;97.20;;;11.14;59.93;94601.28;4995728;28;21117;-54
2023/03/25 02:00:53;;;;;;;12.77;9.80;;;11.00;97.10;;;11.13;60.04;94600.44;4995818;28;21013;-56
2023/03/25 02:03:21;;;;;;;14.80;10.30;;;11.00;97.20;;;11.11;59.82;94597.13;4987420;28;21085;-53
2023/03/25 02:05:55;;;;;;;11.47;9.73;;;11.00;97.00;;;11.09;59.91;94596.47;5002941;28;20523;-56
2023/03/25 02:08:22;;;;;;;13.20;10.47;;;11.00;96.90;;;11.06;59.96;94594.13;4995120;28;20466;-57
2023/03/25 02:10:51;;;;;;;18.13;11.17;;;10.90;96.90;;;11.04;59.57;94595.25;4990710;28;20972;-56
2023/03/25 02:13:18;;;;;;;17.03;9.90;;;10.90;96.70;;;11.00;59.73;94599.13;4991683;28;20839;-54
2023/03/25 02:16:08;;;;;;;16.70;9.53;;;10.90;96.70;;;10.97;59.55;94591.53;4994715;28;20470;-57
2023/03/25 02:18:42;;;;;;;14.83;10.10;;;10.90;96.70;;;10.94;59.70;94587.44;4985888;28;21469;-57
2023/03/25 02:22:06;;;;;;;29.10;9.87;;;10.80;96.70;;;10.89;59.44;94582.59;4996371;28;20532;-57
2023/03/25 02:25:06;;;;;;;22.33;10.50;;;10.80;96.60;;;10.86;59.45;94587.31;4990755;28;20482;-54
2023/03/25 02:27:57;;;;;;;19.80;9.87;;;10.70;96.50;;;10.82;59.79;94584.16;4985417;28;20478;-55
2023/03/25 02:31:13;;;;;;;14.30;8.67;;;10.70;96.80;;;10.77;59.50;94579.34;4993776;28;20829;-55
2023/03/25 02:34:28;;;;;;;17.30;10.53;;;10.70;96.50;;;10.71;59.56;94579.94;4981559;28;20490;-55
2023/03/25 02:37:27;;;;;;;15.27;8.40;;;10.60;96.50;;;10.67;59.54;94577.75;4987411;28;20517;-57
2023/03/25 02:39:58;;;;;;;17.27;8.80;;;10.50;96.50;;;10.64;59.53;94578.88;4991141;28;20462;-56
2023/03/25 02:42:29;;;;;;;14.47;8.87;;;10.50;96.40;;;10.60;59.44;94588.03;4986461;28;20569;-57
2023/03/25 02:44:59;;;;;;;15.30;10.23;;;10.50;96.20;;;10.59;59.59;94578.50;4993232;28;20481;-56
2023/03/25 02:47:31;;;;;;;18.13;9.57;;;10.50;96.80;;;10.59;59.36;94578.50;4988860;28;20485;-56
2023/03/25 02:50:03;;;;;;;11.43;9.50;;;10.50;96.70;;;10.58;60.26;94574.19;4989395;28;20469;-55
2023/03/25 02:52:32;;;;;;;26.60;10.20;;;10.50;97.00;;;10.58;60.10;94568.94;4990845;28;20477;-55
2023/03/25 02:55:03;;;;;;;13.20;9.70;;;10.50;97.10;;;10.58;60.07;94579.44;4988946;28;20490;-56
2023/03/25 02:57:31;;;;;;;15.13;9.27;;;10.50;97.10;;;10.55;59.98;94569.22;4984271;28;20585;-56
2023/03/25 02:59:59;;;;;;;17.63;10.40;;;10.40;96.80;;;10.52;59.95;94562.47;4989252;28;20465;-56
2023/03/25 03:02:27;;;;;;;12.67;10.20;;;10.40;96.90;;;10.50;59.33;94560.97;4997271;28;20545;-56
2023/03/25 03:04:56;;;;;;;11.80;9.00;;;10.40;96.60;;;10.45;59.54;94557.94;4993275;28;20490;-55
2023/03/25 03:07:26;;;;;;;15.10;9.73;;;10.40;96.50;;;10.42;59.67;94560.88;4986079;28;20526;-56
2023/03/25 03:10:02;;;;;;;13.27;9.80;;;10.30;96.70;;;10.42;59.79;94561.69;4998054;28;20515;-54
2023/03/25 03:12:49;;;;;;;16.90;10.03;;;10.30;96.70;;;10.43;60.19;94560.72;4984721;28;20481;-55
2023/03/25 03:15:26;;;;;;;15.67;9.20;;;10.30;96.90;;;10.43;59.74;94565.16;4986289;28;20462;-55
2023/03/25 03:18:05;;;;;;;13.40;8.83;;;10.30;96.80;;;10.42;60.51;94582.72;4986345;28;20489;-55
2023/03/25 03:20:38;;;;;;;16.93;10.43;;;10.30;97.30;;;10.37;60.52;94571.84;4983629;28;20486;-56
2023/03/25 03:23:09;;;;;;;16.07;10.33;;;10.30;97.30;;;10.33;60.61;94578.34;4985042;28;21003;-56
2023/03/25 03:25:41;;;;;;;13.70;9.60;;;10.20;97.50;;;10.31;60.60;94567.94;4992319;28;20902;-55
2023/03/25 03:28:11;;;;;;;14.50;10.20;;;10.20;97.30;;;10.30;60.59;94560.19;4995133;28;20473;-54
2023/03/25 03:30:42;;;;;;;16.50;10.90;;;10.20;97.40;;;10.30;60.51;94578.59;4986933;28;20467;-56
2023/03/25 03:33:14;;;;;;;19.23;10.20;;;10.20;97.50;;;10.28;60.52;94570.84;4984212;28;20469;-56
2023/03/25 03:35:48;;;;;;;21.53;11.93;;;10.20;97.50;;;10.28;60.58;94573.50;4990314;28;20509;-56
2023/03/25 03:38:15;;;;;;;18.97;10.83;;;10.20;97.60;;;10.28;60.36;94583.19;4985936;28;20492;-57
2023/03/25 03:40:46;;;;;;;24.13;12.53;;;10.20;97.40;;;10.25;60.28;94579.03;4986692;28;20464;-57
2023/03/25 03:43:16;;;;;;;29.27;17.03;;;10.20;97.50;;;10.23;60.52;94579.19;4994454;28;20482;-56
2023/03/25 03:45:45;;;;;;;30.70;17.17;;;10.10;97.50;;;10.25;60.78;94580.84;4988342;28;20521;-57
2023/03/25 03:48:15;;;;;;;27.57;14.87;;;10.10;97.60;;;10.23;60.76;94578.38;4991398;28;20520;-54
2023/03/25 03:50:45;;;;;;;31.20;15.80;;;10.10;97.70;;;10.23;60.64;94581.81;4989775;28;20461;-57
2023/03/25 03:53:15;;;;;;;38.60;14.03;;;10.10;97.50;;;10.20;60.23;94582.09;4990771;28;20489;-57
2023/03/25 03:55:47;;;;;;;28.97;13.13;;;10.10;97.20;;;10.18;60.64;94578.78;4985958;28;20458;-56
2023/03/25 03:58:21;;;;;;;28.30;14.00;;;10.10;97.60;;;10.16;60.72;94575.50;4988682;28;20559;-56
2023/03/25 04:00:51;;;;;;;27.47;13.93;;;10.10;98.00;;;10.13;60.56;94575.78;4979366;28;20490;-53
2023/03/25 04:03:23;;;;;;;22.33;13.53;;;10.00;97.50;;;10.11;60.66;94575.09;4983371;28;20493;-56
2023/03/25 04:05:53;;;;;;;19.40;12.00;;;10.00;97.60;;;10.09;60.48;94573.59;4997849;28;21073;-55
2023/03/25 04:08:27;;;;;;;30.90;12.13;;;10.00;97.50;;;10.05;60.17;94576.50;4988815;28;21061;-55
2023/03/25 04:10:58;;;;;;;14.80;11.60;;;10.00;97.20;;;10.02;60.23;94579.41;4980221;28;20985;-57
2023/03/25 04:13:28;;;;;;;19.27;12.43;;;9.90;97.60;;;10.02;60.59;94573.31;4984490;28;20536;-57
2023/03/25 04:15:59;;;;;;;20.80;12.37;;;9.90;97.80;;;10.00;60.53;94577.91;4989319;28;20458;-56
2023/03/25 04:18:27;;;;;;;22.77;12.83;;;9.90;98.00;;;9.96;60.54;94573.88;4984097;28;20521;-54
2023/03/25 04:20:54;;;;;;;19.57;11.27;;;9.90;97.80;;;9.92;60.88;94575.16;4990812;28;20477;-54
2023/03/25 04:23:22;;;;;;;20.17;12.70;;;9.90;98.00;;;9.87;60.63;94565.91;4986507;28;20868;-55
2023/03/25 04:25:51;;;;;;;29.97;12.27;;;9.80;97.90;;;9.86;60.50;94573.94;4987348;28;20521;-53
2023/03/25 04:28:20;;;;;;;18.57;11.40;;;9.80;97.90;;;9.85;60.74;94580.13;4986048;28;20538;-54
2023/03/25 04:30:49;;;;;;;21.00;12.10;;;9.80;97.80;;;9.84;60.45;94575.88;4991964;28;20534;-56
2023/03/25 04:33:16;;;;;;;24.43;11.90;;;9.80;98.00;;;9.83;60.48;94577.66;4986367;28;21027;-55
2023/03/25 04:35:44;;;;;;;25.53;12.00;;;9.80;98.00;;;9.81;60.56;94582.22;4985740;28;20480;-54
2023/03/25 04:38:11;;;;;;;31.20;12.07;;;9.70;98.00;;;9.82;60.45;94575.19;5004553;28;20478;-55
2023/03/25 04:40:39;;;;;;;35.73;11.40;;;9.70;98.10;;;9.82;60.99;94578.66;4992337;28;20977;-56
2023/03/25 04:43:07;;;;;;;33.43;12.10;;;9.70;98.40;;;9.83;60.69;94579.47;4992890;28;20475;-55
2023/03/25 04:45:37;;;;;;;24.57;11.40;;;9.70;98.40;;;9.82;60.82;94578.66;4997366;28;20593;-57
2023/03/25 04:48:05;;;;;;;14.53;10.80;;;9.70;98.20;;;9.82;60.67;94578.66;5000659;28;20475;-59
2023/03/25 04:50:33;;;;;;;29.10;11.97;;;9.70;98.20;;;9.83;60.68;94579.47;4997460;28;20455;-54
2023/03/25 04:53:01;;;;;;;18.47;10.67;;;9.80;98.10;;;9.85;60.76;94575.75;5000744;28;20470;-54
2023/03/25 04:55:28;;;;;;;23.73;11.53;;;9.80;98.30;;;9.89;61.21;94580.72;4999124;28;20462;-56
2023/03/25 04:57:56;;;;;;;20.20;12.83;;;9.80;98.40;;;9.92;61.11;94583.03;4994868;28;20896;-57
2023/03/25 05:00:25;;;;;;;21.03;11.97;;;9.80;98.50;;;9.95;60.88;94583.59;4994354;28;20923;-56
2023/03/25 05:02:55;;;;;;;19.33;12.17;;;9.80;98.40;;;9.98;60.83;94579.84;4994732;28;20478;-56
2023/03/25 05:05:23;;;;;;;23.10;11.30;;;9.90;98.50;;;10.01;61.25;94582.19;4991617;28;20555;-56
2023/03/25 05:07:52;;;;;;;30.90;11.97;;;9.90;98.40;;;10.03;60.27;94585.50;4987442;28;20485;-57
2023/03/25 05:10:21;;;;;;;23.37;11.37;;;9.90;97.90;;;10.08;60.62;94588.50;4999911;28;20473;-56
2023/03/25 05:12:49;;;;;;;27.23;13.37;;;9.90;98.20;;;10.22;60.51;94589.84;4991759;28;20485;-56
2023/03/25 05:15:17;;;;;;;60.30;15.33;;;10.10;97.80;;;10.39;60.21;94591.75;4990217;28;20840;-56
2023/03/25 05:17:44;;;;;;;48.17;13.53;;;10.30;97.60;;;10.56;59.74;94592.75;4997796;28;20473;-58
2023/03/25 05:20:15;;;;;;;24.43;12.10;;;10.40;97.20;;;10.73;59.49;94591.13;4998389;28;20544;-55
2023/03/25 05:22:44;;;;;;;22.63;10.90;;;10.60;97.00;;;10.81;59.30;94590.41;4993260;28;20521;-53
2023/03/25 05:25:12;;;;;;;20.87;11.57;;;10.70;96.80;;;10.88;59.59;94590.66;4992344;28;20460;-56
2023/03/25 05:27:40;;;;;;;20.73;10.83;;;10.80;97.00;;;10.96;59.17;94588.09;5002007;28;20482;-54
2023/03/25 05:30:09;;;;;;;31.10;15.00;;;10.90;96.80;;;11.00;58.91;94581.56;4995605;28;20454;-56
2023/03/25 05:32:39;;;;;;;23.60;10.57;;;10.90;96.50;;;11.02;58.67;94579.59;4986946;28;20533;-56
2023/03/25 05:35:07;;;;;;;27.07;10.83;;;10.90;96.30;;;11.06;59.18;94586.22;4993899;28;20449;-55
2023/03/25 05:37:36;;;;;;;71.00;12.37;;;11.00;96.70;;;11.11;59.15;94589.22;4991965;28;20864;-57
2023/03/25 05:40:06;;;;;;;25.03;11.87;;;11.00;96.70;;;11.17;59.45;94590.44;4994529;28;20599;-56
2023/03/25 05:42:34;;;;;;;34.97;10.57;;;11.00;96.90;;;11.22;59.59;94593.44;5002216;28;20506;-55
2023/03/25 05:45:01;;;;;;;30.33;11.40;;;11.10;97.20;;;11.29;59.02;94596.28;4994369;28;20455;-57
2023/03/25 05:47:29;;;;;;;16.10;10.90;;;11.10;96.60;;;11.33;58.95;94589.75;4990307;28;20505;-54
2023/03/25 05:49:57;;;;;;;21.83;11.43;;;11.20;96.40;;;11.38;59.08;94592.75;5000962;28;20867;-55
2023/03/25 05:52:26;;;;;;;24.27;12.10;;;11.20;96.60;;;11.46;58.76;94587.56;4997358;28;20556;-56
2023/03/25 05:54:55;;;;;;;23.20;11.57;;;11.30;96.40;;;11.58;58.23;94587.31;4984065;28;20566;-58
2023/03/25 05:57:22;;;;;;;20.13;12.40;;;11.40;96.20;;;11.73;58.66;94585.78;4998720;28;21386;-57
2023/03/25 05:59:50;;;;;;;25.50;12.30;;;11.50;96.40;;;11.89;58.36;94590.34;4993396;28;21518;-56
2023/03/25 06:02:17;;;;;;;26.17;13.63;;;11.70;96.40;;;12.07;58.26;94587.69;4982776;28;20491;-55
2023/03/25 06:04:46;;;;;;;20.40;13.37;;;11.80;96.20;;;12.25;58.00;94589.44;4994031;28;20809;-56
2023/03/25 06:07:18;;;;;;;33.10;17.17;;;12.00;95.90;;;12.46;57.48;94594.31;4997992;28;20560;-56
2023/03/25 06:09:45;;;;;;;56.27;19.30;;;12.20;95.80;;;12.67;56.91;94581.53;4990219;28;20537;-57
2023/03/25 06:12:16;;;;;;;33.87;15.03;;;12.40;95.50;;;12.88;56.55;94585.56;4981771;28;20473;-56
2023/03/25 06:14:44;;;;;;;36.03;15.13;;;12.60;95.10;;;13.08;55.99;94580.81;5002430;28;20560;-56
2023/03/25 06:17:12;;;;;;;33.97;17.03;;;12.80;94.70;;;13.30;55.70;94575.91;4997209;28;20532;-56
2023/03/25 06:19:40;;;;;;;48.93;18.33;;;13.00;94.30;;;13.50;55.39;94579.06;4987751;28;20459;-57
2023/03/25 06:22:08;;;;;;;40.57;16.77;;;13.20;94.20;;;13.71;55.28;94582.03;4998349;28;20493;-57
2023/03/25 06:24:36;;;;;;;36.93;17.10;;;13.40;94.20;;;13.93;54.47;94579.72;4992293;28;20511;-57
2023/03/25 06:27:03;;;;;;;29.27;15.60;;;13.60;93.50;;;14.14;54.10;94590.59;4988608;28;21006;-57
2023/03/25 06:29:32;;;;;;;34.73;16.50;;;13.80;93.10;;;14.37;53.63;94594.31;4997848;28;20563;-56
2023/03/25 06:32:00;;;;;;;36.30;15.93;;;14.00;92.60;;;14.58;53.56;94584.00;4992157;28;20481;-55
2023/03/25 06:34:27;;;;;;;32.40;14.70;;;14.20;92.70;;;14.82;53.00;94582.25;4990265;28;21292;-56
2023/03/25 06:36:54;;;;;;;22.50;13.30;;;14.50;92.40;;;15.06;52.60;94586.63;4987835;28;20489;-58
2023/03/25 06:39:22;;;;;;;26.00;15.20;;;14.70;91.60;;;15.29;52.61;94581.34;4991990;28;20467;-56
2023/03/25 06:41:50;;;;;;;26.43;15.43;;;14.90;91.40;;;15.52;51.95;94577.84;4990223;28;20463;-56
2023/03/25 06:44:17;;;;;;;24.03;15.43;;;15.10;91.00;;;15.75;51.59;94581.34;4985901;28;21024;-57
2023/03/25 06:46:46;;;;;;;37.00;17.50;;;15.40;90.60;;;16.01;51.12;94589.91;5000171;28;20528;-56
2023/03/25 06:49:14;;;;;;;30.00;17.00;;;15.60;90.10;;;16.23;50.27;94590.84;4997019;28;20834;-57
2023/03/25 06:51:41;;;;;;;33.70;16.30;;;15.80;88.00;;;16.41;49.99;94586.00;4991197;28;20455;-57
2023/03/25 06:54:08;;;;;;;41.50;15.70;;;16.10;87.50;;;16.63;49.23;94594.88;5000520;28;20573;-57
2023/03/25 06:56:36;;;;;;;31.80;17.53;;;16.30;85.90;;;16.83;48.55;94600.47;4996828;28;20915;-55
2023/03/25 06:59:04;;;;;;;35.80;16.53;;;16.50;83.90;;;17.06;47.66;94594.22;4989071;28;20458;-58
2023/03/25 07:01:31;;;;;;;27.47;13.97;;;16.70;81.50;;;17.27;47.70;94597.94;4994892;28;20835;-56
2023/03/25 07:03:59;;;;;;;36.73;15.23;;;16.90;80.70;;;17.47;47.77;94593.63;4996091;28;20527;-56
2023/03/25 07:06:27;;;;;;;33.93;15.77;;;17.10;81.70;;;17.74;47.52;94593.91;4984993;28;20490;-57
2023/03/25 07:08:54;;;;;;;25.83;15.80;;;17.30;80.30;;;17.99;46.89;94590.88;4986463;28;20458;-57
2023/03/25 07:11:25;;;;;;;23.23;14.10;;;17.60;79.40;;;18.26;47.39;94584.75;4990254;28;20459;-57
2023/03/25 07:13:52;;;;;;;19.23;13.00;;;17.90;79.30;;;18.59;46.51;94586.78;4990854;28;21047;-57
2023/03/25 07:16:20;;;;;;;36.10;15.27;;;18.20;79.10;;;18.89;46.20;94585.72;4987000;28;20470;-57
2023/03/25 07:18:47;;;;;;;32.17;14.03;;;18.50;78.20;;;19.19;45.77;94586.25;4996046;28;20557;-55
2023/03/25 07:21:16;;;;;;;28.60;13.63;;;18.70;75.60;;;19.51;44.79;94591.88;4994386;28;20462;-53
2023/03/25 07:23:43;;;;;;;33.43;13.70;;;19.00;73.90;;;19.83;44.81;94584.13;4986989;28;20973;-56
2023/03/25 07:26:12;;;;;;;18.50;12.43;;;19.40;74.00;;;20.14;44.71;94585.38;4995567;28;20489;-56
2023/03/25 07:28:39;;;;;;;24.10;13.50;;;19.60;72.90;;;20.50;44.17;94586.78;4989128;28;20816;-57
2023/03/25 07:31:08;;;;;;;29.53;14.97;;;19.90;72.70;;;20.82;43.69;94579.75;4985151;28;20529;-57
2023/03/25 07:33:36;;;;;;;22.20;13.47;;;20.30;71.50;;;21.11;43.14;94581.06;4979792;28;20503;-56
2023/03/25 07:36:03;;;;;;;18.77;13.70;;;20.50;70.30;;;21.57;43.03;94589.13;4986413;28;20462;-56
2023/03/25 07:38:32;;;;;;;22.00;13.17;;;20.90;70.20;;;22.09;42.80;94581.75;4988474;28;20474;-56
2023/03/25 07:40:59;;;;;;;22.13;13.00;;;21.40;69.00;;;22.67;42.18;94571.75;4990667;28;20449;-57
2023/03/25 07:43:27;;;;;;;23.03;12.77;;;22.00;67.90;;;23.22;41.70;94574.47;4997095;28;20478;-57
2023/03/25 07:45:54;;;;;;;25.50;13.93;;;22.50;66.40;;;23.75;40.15;94566.69;4980403;28;20537;-56
2023/03/25 07:48:22;;;;;;;26.27;12.70;;;23.10;63.20;;;24.24;39.73;94563.91;4985947;28;20525;-55
2023/03/25 07:50:51;;;;;;;22.97;13.77;;;23.60;62.10;;;24.65;37.54;94559.50;5000350;28;20982;-60
2023/03/25 07:53:19;;;;;;;22.33;13.03;;;24.10;56.70;;;24.98;36.27;94552.66;4987599;28;20471;-57
2023/03/25 07:55:49;;;;;;;21.83;13.37;;;24.60;56.00;;;25.26;37.22;94551.88;4982682;28;20524;-57
2023/03/25 07:58:17;;;;;;;35.33;13.07;;;25.00;56.90;;;25.60;37.46;94552.00;4992965;28;21018;-56
2023/03/25 08:00:44;;;;;;;28.73;14.73;;;25.40;56.80;;;25.97;36.96;94550.75;4985728;28;20541;-58
2023/03/25 08:03:12;;;;;;;26.57;13.00;;;25.70;55.80;;;26.40;37.01;94547.44;4986275;28;20566;-58
2023/03/25 08:05:43;;;;;;;25.20;14.87;;;26.20;55.20;;;26.87;36.24;94548.09;4995458;28;20550;-59
2023/03/25 08:08:10;;;;;;;28.73;14.60;;;26.60;54.20;;;27.29;35.16;94550.22;4987488;28;20496;-59
2023/03/25 08:10:38;;;;;;;32.87;13.27;;;27.00;53.30;;;27.69;34.88;94536.38;4990488;28;20461;-57
2023/03/25 08:13:06;;;;;;;18.07;13.10;;;27.40;52.70;;;28.00;34.25;94530.47;4989310;28;20476;-59
2023/03/25 08:15:34;;;;;;;23.83;13.40;;;27.70;50.90;;;28.23;33.62;94532.81;4990945;28;20870;-56
2023/03/25 08:18:02;;;;;;;24.93;15.20;;;28.00;50.70;;;28.33;33.30;94528.56;4991603;28;20477;-57
2023/03/25 08:20:29;;;;;;;39.83;14.40;;;28.10;50.10;;;28.30;33.09;94529.06;4990978;28;20468;-57
2023/03/25 08:22:57;;;;;;;19.47;13.97;;;28.10;48.30;;;28.31;33.53;94525.31;4988879;28;21194;-56
2023/03/25 08:25:24;;;;;;;29.37;15.90;;;28.20;48.70;;;28.28;32.75;94528.53;4987544;28;20542;-56
2023/03/25 08:27:52;;;;;;;20.73;15.53;;;28.20;48.40;;;28.13;33.04;94527.31;4978408;28;20529;-57
2023/03/25 08:30:21;;;;;;;34.40;15.83;;;28.00;47.40;;;27.95;32.54;94525.84;4992502;28;20457;-59
2023/03/25 08:32:52;;;;;;;22.70;15.37;;;27.90;47.30;;;27.73;32.33;94528.56;4987340;28;20527;-61
2023/03/25 08:35:21;;;;;;;24.40;14.20;;;27.70;47.20;;;27.63;32.57;94520.38;4984320;28;20468;-56
2023/03/25 08:37:48;;;;;;;26.73;15.20;;;27.50;47.60;;;27.52;32.65;94520.25;4987074;28;21107;-59
2023/03/25 08:40:16;;;;;;;27.43;14.70;;;27.40;47.30;;;27.39;32.63;94519.84;4993103;28;20462;-56
2023/03/25 08:42:45;;;;;;;20.80;12.87;;;27.30;47.20;;;27.32;33.29;94520.06;4986844;28;20568;-56
2023/03/25 08:45:14;;;;;;;34.67;14.67;;;27.10;47.80;;;27.35;33.04;94514.16;4985371;28;20484;-60
2023/03/25 08:47:44;;;;;;;30.83;15.27;;;27.00;47.70;;;27.40;33.16;94511.50;4992935;28;20500;-56
2023/03/25 08:50:11;;;;;;;30.93;14.00;;;27.00;47.60;;;27.49;32.62;94507.25;4988674;28;20477;-60
2023/03/25 08:52:40;;;;;;;19.17;13.20;;;27.00;47.40;;;27.53;32.61;94504.88;4990569;28;20476;-59
2023/03/25 08:55:07;;;;;;;23.13;14.20;;;27.10;47.60;;;27.53;32.41;94502.19;4993463;28;20472;-61
2023/03/25 08:57:36;;;;;;;32.63;12.63;;;27.10;47.30;;;27.52;32.38;94509.44;4983564;28;20560;-55
2023/03/25 09:00:07;;;;;;;31.67;14.40;;;27.10;47.40;;;27.57;32.26;94510.59;4985966;28;20480;-59
2023/03/25 09:02:34;;;;;;;23.23;13.93;;;27.10;46.60;;;27.68;32.16;94506.91;4996297;28;20613;-57
2023/03/25 09:05:04;;;;;;;21.30;12.33;;;27.20;46.90;;;27.81;32.05;94501.09;4988726;28;20470;-60
2023/03/25 09:07:32;;;;;;;18.50;11.43;;;27.30;47.00;;;27.98;32.04;94494.75;4981052;28;20497;-55
2023/03/25 09:10:00;;;;;;;20.03;13.13;;;27.40;46.30;;;28.14;31.65;94490.28;4993523;28;20458;-59
2023/03/25 09:12:27;;;;;;;26.83;13.50;;;27.60;46.60;;;28.26;31.93;94483.59;4980672;28;20526;-58
2023/03/25 09:14:54;;;;;;;19.93;12.60;;;27.70;46.50;;;28.25;31.32;94479.25;4976176;28;20509;-55
2023/03/25 09:17:21;;;;;;;22.63;10.40;;;27.70;45.60;;;28.08;31.36;94487.53;4990451;28;20493;-59
2023/03/25 09:19:49;;;;;;;23.73;10.73;;;27.60;45.10;;;27.83;31.14;94487.31;4990191;28;21158;-56
2023/03/25 09:22:17;;;;;;;17.40;9.60;;;27.40;45.40;;;27.61;31.35;94485.50;4986167;28;20490;-54
2023/03/25 09:24:45;;;;;;;25.73;10.43;;;27.20;45.20;;;27.55;31.65;94486.53;4990457;28;20454;-57
2023/03/25 09:27:12;;;;;;;20.70;10.27;;;27.10;45.40;;;27.53;31.22;94477.88;4998649;28;20559;-59
2023/03/25 09:29:39;;;;;;;22.53;10.07;;;27.00;45.90;;;27.47;31.60;94479.69;4985884;28;20995;-57
2023/03/25 09:32:08;;;;;;;17.43;10.43;;;27.00;45.20;;;27.44;31.72;94477.50;4985855;28;21886;-55
2023/03/25 09:34:36;;;;;;;17.80;9.10;;;26.90;45.60;;;27.50;31.62;94475.69;4986133;28;20461;-59
2023/03/25 09:37:04;;;;;;;16.10;10.07;;;27.00;46.10;;;27.58;31.84;94467.09;4991916;28;20565;-57
2023/03/25 09:39:32;;;;;;;22.87;9.83;;;27.00;46.20;;;27.69;31.80;94468.00;4980482;28;20553;-56
2023/03/25 09:42:39;;;;;;;17.70;7.67;;;27.10;46.50;;;27.71;30.47;94463.16;4999696;28;20475;-59
2023/03/25 09:45:19;;;;;;;18.73;9.00;;;27.10;45.10;;;27.51;31.92;94456.50;4989656;28;20536;-59
2023/03/25 09:47:54;;;;;;;16.77;7.37;;;27.10;46.00;;;27.32;31.88;94457.94;4990754;28;20537;-59
2023/03/25 09:50:21;;;;;;;10.50;5.73;;;26.90;46.00;;;27.12;31.66;94445.81;5000712;28;20783;-60
2023/03/25 09:52:52;;;;;;;8.53;5.20;;;26.70;45.10;;;26.95;31.83;94447.78;4995805;28;20535;-59
2023/03/25 09:55:25;;;;;;;9.30;5.03;;;26.60;45.90;;;26.92;31.61;94446.41;4991774;28;20457;-61
2023/03/25 09:57:57;;;;;;;5.33;4.67;;;26.50;45.80;;;26.87;30.93;94432.06;4992331;28;20549;-59
2023/03/25 10:00:25;;;;;;;6.70;4.23;;;26.40;44.20;;;26.73;31.39;94437.81;4992557;28;20453;-59
2023/03/25 10:03:01;;;;;;;8.10;4.07;;;26.30;44.80;;;26.69;31.59;94438.59;4990308;28;20925;-58
2023/03/25 10:05:55;;;;;;;8.10;4.80;;;26.20;45.40;;;26.78;31.11;94434.38;4989460;28;20464;-54
2023/03/25 10:08:28;;;;;;;8.83;5.03;;;26.30;45.60;;;26.83;30.98;94429.88;4993765;28;20497;-59
2023/03/25 10:11:02;;;;;;;10.17;4.47;;;26.30;44.40;;;26.80;30.77;94426.84;4990469;28;20819;-54
2023/03/25 10:13:36;;;;;;;6.27;5.13;;;26.30;44.70;;;26.80;31.27;94416.88;4995047;28;20483;-60
2023/03/25 10:16:07;;;;;;;15.77;5.27;;;26.30;45.30;;;26.72;31.62;94417.31;4995577;28;20814;-56
2023/03/25 10:18:46;;;;;;;6.73;5.00;;;26.30;45.60;;;26.59;31.43;94414.97;4992867;28;20482;-57
2023/03/25 10:21:16;;;;;;;15.73;5.30;;;26.10;45.50;;;26.42;31.50;94413.13;4993571;28;20457;-55